createdAt,value
2018-03-27T00:00:09.192Z,93.70
2018-03-27T00:02:37.441Z,93.80
2018-03-27T00:05:06.476Z,93.60
2018-03-27T00:07:34.752Z,93.60
2018-03-27T00:10:03.022Z,93.60
2018-03-27T00:12:31.275Z,93.70
2018-03-27T00:14:59.532Z,93.50
2018-03-27T00:17:28.546Z,93.40
2018-03-27T00:19:56.802Z,93.30
2018-03-27T00:22:25.818Z,93.40
2018-03-27T00:24:54.069Z,93.40
2018-03-27T00:27:34.845Z,93.50
2018-03-27T00:30:16.207Z,93.00
2018-03-27T00:32:57.166Z,92.40
2018-03-27T00:35:37.720Z,92.40
2018-03-27T00:38:18.033Z,92.90
2018-03-27T00:40:46.775Z,93.20
2018-03-27T00:43:15.040Z,93.20
2018-03-27T00:45:43.305Z,93.20
2018-03-27T00:48:11.564Z,93.70
2018-03-27T00:50:39.807Z,93.80
2018-03-27T00:53:08.842Z,93.40
2018-03-27T00:55:37.104Z,93.40
2018-03-27T00:58:05.358Z,94.30
2018-03-27T01:00:34.379Z,94.70
2018-03-27T01:03:02.639Z,94.70
2018-03-27T01:05:30.890Z,94.70
2018-03-27T01:07:59.141Z,94.90
2018-03-27T01:10:28.920Z,94.60
2018-03-27T01:12:57.195Z,94.60
2018-03-27T01:15:25.458Z,95.10
2018-03-27T01:17:54.449Z,95.30
2018-03-27T01:20:22.719Z,94.60
2018-03-27T01:22:51.758Z,93.00
2018-03-27T01:25:20.006Z,93.00
2018-03-27T01:27:48.250Z,94.30
2018-03-27T01:30:17.272Z,94.90
2018-03-27T01:32:45.521Z,94.90
2018-03-27T01:35:14.546Z,93.00
2018-03-27T01:37:42.825Z,93.00
2018-03-27T01:40:11.081Z,93.30
2018-03-27T01:42:39.363Z,93.70
2018-03-27T01:45:07.637Z,94.00
2018-03-27T01:47:36.055Z,94.50
2018-03-27T01:50:04.307Z,94.80
2018-03-27T01:52:32.573Z,94.80
2018-03-27T01:55:00.831Z,94.90
2018-03-27T01:57:29.855Z,95.10
2018-03-27T01:59:58.110Z,95.10
2018-03-27T02:02:26.365Z,95.40
2018-03-27T02:04:55.403Z,95.90
2018-03-27T02:07:23.662Z,95.60
2018-03-27T02:09:51.934Z,95.40
2018-03-27T02:12:25.828Z,95.30
2018-03-27T02:15:00.839Z,95.70
2018-03-27T02:17:34.801Z,95.60
2018-03-27T02:20:09.067Z,95.70
2018-03-27T02:22:39.947Z,95.60
2018-03-27T02:25:08.201Z,95.60
2018-03-27T02:27:37.237Z,95.70
2018-03-27T02:30:05.491Z,95.70
2018-03-27T02:32:33.752Z,95.70
2018-03-27T02:35:02.789Z,95.80
2018-03-27T02:37:31.046Z,95.80
2018-03-27T02:39:59.306Z,95.90
2018-03-27T02:42:27.642Z,96.00
2018-03-27T02:44:55.911Z,96.20
2018-03-27T02:47:24.172Z,96.40
2018-03-27T02:49:52.428Z,96.60
2018-03-27T02:52:20.691Z,96.30
2018-03-27T02:54:48.984Z,96.10
2018-03-27T02:57:17.233Z,95.90
2018-03-27T02:59:46.251Z,96.10
2018-03-27T03:02:14.527Z,96.00
2018-03-27T03:04:42.792Z,96.10
2018-03-27T03:07:11.055Z,95.90
2018-03-27T03:09:40.074Z,96.30
2018-03-27T03:12:08.347Z,96.20
2018-03-27T03:14:36.599Z,95.80
2018-03-27T03:17:05.614Z,95.90
2018-03-27T03:19:33.872Z,95.90
2018-03-27T03:22:02.136Z,96.10
2018-03-27T03:24:31.186Z,96.10
2018-03-27T03:26:59.446Z,96.10
2018-03-27T03:29:27.718Z,96.30
2018-03-27T03:31:55.963Z,96.30
2018-03-27T03:34:25.004Z,96.20
2018-03-27T03:36:53.260Z,96.20
2018-03-27T03:39:21.510Z,96.40
2018-03-27T03:41:50.527Z,96.70
2018-03-27T03:44:18.782Z,96.70
2018-03-27T03:46:47.040Z,96.90
2018-03-27T03:49:15.312Z,97.00
2018-03-27T03:51:43.573Z,97.00
2018-03-27T03:54:11.829Z,96.90
2018-03-27T03:56:40.072Z,97.00
2018-03-27T03:59:08.337Z,96.90
2018-03-27T04:01:37.395Z,97.00
2018-03-27T04:04:05.656Z,97.00
2018-03-27T04:06:33.912Z,97.20
2018-03-27T04:09:03.158Z,97.40
2018-03-27T04:11:32.231Z,97.80
2018-03-27T04:14:00.482Z,97.70
2018-03-27T04:16:28.751Z,97.70
2018-03-27T04:18:57.008Z,97.80
2018-03-27T04:21:25.268Z,98.00
2018-03-27T04:23:54.280Z,98.40
2018-03-27T04:26:22.535Z,98.40
2018-03-27T04:28:51.624Z,98.60
2018-03-27T04:31:20.655Z,98.80
2018-03-27T04:33:48.947Z,98.60
2018-03-27T04:36:17.199Z,98.70
2018-03-27T04:38:45.465Z,98.70
2018-03-27T04:41:14.475Z,98.70
2018-03-27T04:43:42.730Z,98.70
2018-03-27T04:46:11.757Z,98.70
2018-03-27T04:48:40.027Z,98.60
2018-03-27T04:51:08.286Z,98.80
2018-03-27T04:53:36.549Z,98.90
2018-03-27T04:56:05.572Z,99.00
2018-03-27T04:58:33.848Z,98.90
2018-03-27T05:01:02.121Z,99.10
2018-03-27T05:03:30.414Z,98.90
2018-03-27T05:05:58.665Z,99.10
2018-03-27T05:08:26.978Z,99.20
2018-03-27T05:10:55.333Z,99.30
2018-03-27T05:13:23.673Z,99.40
2018-03-27T05:15:51.928Z,99.40
2018-03-27T05:18:20.181Z,99.30
2018-03-27T05:20:48.451Z,99.50
2018-03-27T05:23:16.719Z,99.60
2018-03-27T05:25:45.016Z,99.40
2018-03-27T05:28:13.275Z,99.30
2018-03-27T05:30:41.568Z,99.30
2018-03-27T05:33:09.827Z,99.20
2018-03-27T05:35:38.104Z,99.20
2018-03-27T05:38:06.368Z,99.30
2018-03-27T05:40:34.633Z,99.50
2018-03-27T05:43:02.896Z,99.30
2018-03-27T05:45:31.168Z,99.30
2018-03-27T05:48:00.191Z,99.20
2018-03-27T05:50:28.511Z,99.20
2018-03-27T05:52:56.786Z,98.90
2018-03-27T05:55:25.819Z,98.70
2018-03-27T05:57:54.842Z,98.50
2018-03-27T06:00:23.112Z,98.50
2018-03-27T06:02:51.370Z,98.20
2018-03-27T06:05:19.644Z,98.10
2018-03-27T06:07:48.689Z,98.40
2018-03-27T06:10:16.951Z,98.40
2018-03-27T06:12:45.251Z,98.90
2018-03-27T06:15:13.521Z,98.50
2018-03-27T06:17:41.798Z,98.50
2018-03-27T06:20:11.591Z,98.40
2018-03-27T06:22:39.850Z,98.40
2018-03-27T06:25:08.123Z,98.40
2018-03-27T06:27:36.422Z,98.10
2018-03-27T06:30:04.661Z,97.50
2018-03-27T06:32:32.944Z,97.10
2018-03-27T06:35:01.206Z,96.60
2018-03-27T06:37:29.483Z,96.80
2018-03-27T06:39:58.501Z,96.40
2018-03-27T06:42:26.824Z,96.40
2018-03-27T06:44:55.090Z,96.00
2018-03-27T06:47:23.352Z,96.10
2018-03-27T06:49:51.611Z,96.10
2018-03-27T06:52:19.886Z,95.80
2018-03-27T06:54:48.144Z,95.20
2018-03-27T06:57:16.408Z,95.60
2018-03-27T06:59:45.444Z,95.50
2018-03-27T07:02:13.707Z,95.50
2018-03-27T07:04:42.001Z,94.70
2018-03-27T07:07:10.326Z,94.90
2018-03-27T07:09:39.384Z,94.60
2018-03-27T07:12:07.640Z,94.60
2018-03-27T07:14:35.879Z,94.40
2018-03-27T07:17:04.140Z,94.20
2018-03-27T07:19:33.178Z,93.40
2018-03-27T07:22:01.441Z,93.40
2018-03-27T07:24:29.713Z,93.20
2018-03-27T07:26:58.065Z,93.30
2018-03-27T07:29:26.262Z,92.90
2018-03-27T07:31:54.528Z,92.90
2018-03-27T07:34:23.551Z,91.40
2018-03-27T07:36:52.569Z,91.70
2018-03-27T07:39:20.822Z,91.70
2018-03-27T07:41:49.096Z,92.10
2018-03-27T07:44:17.360Z,91.60
2018-03-27T07:46:45.663Z,91.70
2018-03-27T07:49:13.939Z,90.70
2018-03-27T07:51:42.211Z,91.40
2018-03-27T07:54:10.697Z,89.90
2018-03-27T07:56:39.075Z,90.20
2018-03-27T07:59:07.326Z,89.10
2018-03-27T08:01:35.605Z,90.10
2018-03-27T08:04:03.870Z,89.20
2018-03-27T08:06:32.134Z,89.20
2018-03-27T08:09:01.160Z,89.50
2018-03-27T08:11:29.470Z,89.40
2018-03-27T08:13:57.750Z,88.80
2018-03-27T08:16:26.103Z,90.20
2018-03-27T08:18:54.364Z,89.00
2018-03-27T08:21:22.640Z,87.40
2018-03-27T08:23:50.896Z,86.50
2018-03-27T08:26:19.182Z,87.40
2018-03-27T08:28:47.489Z,88.10
2018-03-27T08:31:15.760Z,88.80
2018-03-27T08:33:44.109Z,86.40
2018-03-27T08:36:12.547Z,83.20
2018-03-27T08:38:40.774Z,82.30
2018-03-27T08:41:09.043Z,83.80
2018-03-27T08:43:37.304Z,85.20
2018-03-27T08:46:05.596Z,85.40
2018-03-27T08:48:34.703Z,83.50
2018-03-27T08:51:03.096Z,83.60
2018-03-27T08:53:31.578Z,86.70
2018-03-27T08:55:59.847Z,82.10
2018-03-27T08:58:28.185Z,82.50
2018-03-27T09:00:56.476Z,81.20
2018-03-27T09:03:25.554Z,77.40
2018-03-27T09:05:54.588Z,80.40
2018-03-27T09:08:22.859Z,80.30
2018-03-27T09:10:51.165Z,80.20
2018-03-27T09:13:20.196Z,78.70
2018-03-27T09:15:49.253Z,73.50
2018-03-27T09:18:17.524Z,73.50
2018-03-27T09:20:45.885Z,73.00
2018-03-27T09:23:14.148Z,70.40
2018-03-27T09:25:42.428Z,69.20
2018-03-27T09:28:10.693Z,65.00
2018-03-27T09:30:39.100Z,70.20
2018-03-27T09:33:07.376Z,63.60
2018-03-27T09:35:36.578Z,60.30
2018-03-27T09:38:06.029Z,61.60
2018-03-27T09:40:34.316Z,59.10
2018-03-27T09:43:03.488Z,48.30
2018-03-27T09:45:32.788Z,52.70
2018-03-27T09:48:01.835Z,50.00
2018-03-27T09:50:30.104Z,49.90
2018-03-27T09:52:58.387Z,46.10
2018-03-27T09:55:26.676Z,41.20
2018-03-27T09:57:55.197Z,52.30
2018-03-27T10:00:30.085Z,49.30
2018-03-27T10:02:58.484Z,46.90
2018-03-27T10:05:26.851Z,46.50
2018-03-27T10:07:55.216Z,47.40
2018-03-27T10:10:23.505Z,42.20
2018-03-27T10:12:51.774Z,42.60
2018-03-27T10:15:20.121Z,42.50
2018-03-27T10:17:48.448Z,44.60
2018-03-27T10:20:16.728Z,45.40
2018-03-27T10:22:45.006Z,45.40
2018-03-27T10:25:13.267Z,48.10
2018-03-27T10:27:41.632Z,48.00
2018-03-27T10:30:09.898Z,47.70
2018-03-27T10:32:38.169Z,45.00
2018-03-27T10:35:06.456Z,43.60
2018-03-27T10:37:34.940Z,45.70
2018-03-27T10:40:03.214Z,43.20
2018-03-27T10:42:31.528Z,44.20
2018-03-27T10:45:00.568Z,45.50
2018-03-27T10:47:28.879Z,45.50
2018-03-27T10:49:57.191Z,47.90
2018-03-27T10:52:25.531Z,48.80
2018-03-27T10:54:53.998Z,50.50
2018-03-27T10:57:22.370Z,50.70
2018-03-27T10:59:50.667Z,49.90
2018-03-27T11:02:18.942Z,49.80
2018-03-27T11:04:47.223Z,50.50
2018-03-27T11:07:15.526Z,50.80
2018-03-27T11:09:44.564Z,52.70
2018-03-27T11:12:13.664Z,52.60
2018-03-27T11:14:41.953Z,50.60
2018-03-27T11:17:10.843Z,49.30
2018-03-27T11:19:40.041Z,52.40
2018-03-27T11:22:08.325Z,53.30
2018-03-27T11:24:36.616Z,52.20
2018-03-27T11:27:04.873Z,52.20
2018-03-27T11:29:33.179Z,51.30
2018-03-27T11:32:01.445Z,50.20
2018-03-27T11:34:29.780Z,48.50
2018-03-27T11:36:58.829Z,46.90
2018-03-27T11:39:27.995Z,47.50
2018-03-27T11:41:56.294Z,46.90
2018-03-27T11:44:24.568Z,45.40
2018-03-27T11:46:52.855Z,44.50
2018-03-27T11:49:21.926Z,44.70
2018-03-27T11:51:50.209Z,44.70
2018-03-27T11:54:19.996Z,46.00
2018-03-27T11:56:48.270Z,46.00
2018-03-27T11:59:16.532Z,49.80
2018-03-27T12:01:44.806Z,50.50
2018-03-27T12:04:13.249Z,51.80
2018-03-27T12:06:42.372Z,53.80
2018-03-27T12:09:10.650Z,53.80
2018-03-27T12:11:38.929Z,55.90
2018-03-27T12:14:07.186Z,57.40
2018-03-27T12:16:35.608Z,59.80
2018-03-27T12:19:03.917Z,60.70
2018-03-27T12:21:32.215Z,62.60
2018-03-27T12:24:00.515Z,62.00
2018-03-27T12:26:28.825Z,63.10
2018-03-27T12:28:58.164Z,64.50
2018-03-27T12:31:27.213Z,66.80
2018-03-27T12:33:55.481Z,66.90
2018-03-27T12:36:23.893Z,66.30
2018-03-27T12:38:53.161Z,68.20
2018-03-27T12:41:21.578Z,71.60
2018-03-27T12:43:50.615Z,69.70
2018-03-27T12:46:18.916Z,69.00
2018-03-27T12:48:47.224Z,68.40
2018-03-27T12:51:15.553Z,67.80
2018-03-27T12:53:43.837Z,65.70
2018-03-27T12:56:12.144Z,67.00
2018-03-27T12:58:40.456Z,66.50
2018-03-27T13:01:08.763Z,67.60
2018-03-27T13:03:37.057Z,67.50
2018-03-27T13:06:05.382Z,65.80
2018-03-27T13:08:33.713Z,66.70
2018-03-27T13:11:02.083Z,67.40
2018-03-27T13:13:30.419Z,69.00
2018-03-27T13:15:59.446Z,73.70
2018-03-27T13:18:27.728Z,73.60
2018-03-27T13:20:56.108Z,72.40
2018-03-27T13:23:24.416Z,73.60
2018-03-27T13:25:53.504Z,70.70
2018-03-27T13:28:21.963Z,70.60
2018-03-27T13:30:50.229Z,72.10
2018-03-27T13:33:18.509Z,74.30
2018-03-27T13:35:46.773Z,75.30
2018-03-27T13:38:15.085Z,76.30
2018-03-27T13:40:43.428Z,75.70
2018-03-27T13:43:11.784Z,75.80
2018-03-27T13:45:40.099Z,75.20
2018-03-27T13:48:08.382Z,72.70
2018-03-27T13:50:36.713Z,71.80
2018-03-27T13:53:04.932Z,70.50
2018-03-27T13:55:33.202Z,71.10
2018-03-27T13:58:01.495Z,71.80
2018-03-27T14:00:29.823Z,71.40
2018-03-27T14:02:58.112Z,71.40
2018-03-27T14:05:26.371Z,71.50
2018-03-27T14:07:54.733Z,68.70
2018-03-27T14:10:23.809Z,66.30
2018-03-27T14:12:52.242Z,66.20
2018-03-27T14:15:21.158Z,65.80
2018-03-27T14:17:49.440Z,67.90
2018-03-27T14:20:17.815Z,68.10
2018-03-27T14:22:46.089Z,67.20
2018-03-27T14:25:14.977Z,66.70
2018-03-27T14:27:43.273Z,64.40
2018-03-27T14:30:11.570Z,64.50
2018-03-27T14:32:40.637Z,66.40
2018-03-27T14:35:08.980Z,66.40
2018-03-27T14:37:37.255Z,67.20
2018-03-27T14:40:05.528Z,68.30
2018-03-27T14:42:33.830Z,68.40
2018-03-27T14:45:02.115Z,69.50
2018-03-27T14:47:30.485Z,69.80
2018-03-27T14:49:58.766Z,69.00
2018-03-27T14:52:27.051Z,70.00
2018-03-27T14:54:55.418Z,70.70
2018-03-27T14:57:23.680Z,72.30
2018-03-27T14:59:52.612Z,73.50
2018-03-27T15:02:21.396Z,74.50
2018-03-27T15:04:49.775Z,75.70
2018-03-27T15:07:18.077Z,78.00
2018-03-27T15:09:47.114Z,78.30
2018-03-27T15:12:15.473Z,78.30
2018-03-27T15:14:43.724Z,78.90
2018-03-27T15:17:12.872Z,78.90
2018-03-27T15:19:41.170Z,78.80
2018-03-27T15:22:10.263Z,80.00
2018-03-27T15:24:38.536Z,80.00
2018-03-27T15:27:06.810Z,81.30
2018-03-27T15:29:35.069Z,80.90
2018-03-27T15:32:03.350Z,81.60
2018-03-27T15:34:31.611Z,82.40
2018-03-27T15:37:00.007Z,82.50
2018-03-27T15:39:28.296Z,83.50
2018-03-27T15:41:56.580Z,83.60
2018-03-27T15:44:24.858Z,83.90
2018-03-27T15:46:53.169Z,84.30
2018-03-27T15:49:21.452Z,84.20
2018-03-27T15:51:49.706Z,84.70
2018-03-27T15:54:18.760Z,84.20
2018-03-27T15:56:47.093Z,84.10
2018-03-27T15:59:15.362Z,84.40
2018-03-27T16:01:44.458Z,83.80
2018-03-27T16:04:13.515Z,83.80
2018-03-27T16:06:41.777Z,83.70
2018-03-27T16:09:10.086Z,85.80
2018-03-27T16:11:38.396Z,85.60
2018-03-27T16:14:06.672Z,86.50
2018-03-27T16:16:34.983Z,87.60
2018-03-27T16:19:03.398Z,90.20
2018-03-27T16:21:32.459Z,92.00
2018-03-27T16:24:00.770Z,92.10
2018-03-27T16:26:29.069Z,93.80
2018-03-27T16:28:58.155Z,94.10
2018-03-27T16:31:27.251Z,95.00
2018-03-27T16:33:56.319Z,96.20
2018-03-27T16:36:24.606Z,96.10
2018-03-27T16:38:54.837Z,95.90
2018-03-27T16:41:23.907Z,97.60
2018-03-27T16:43:52.211Z,97.50
2018-03-27T16:46:21.247Z,98.90
2018-03-27T16:48:49.676Z,98.90
2018-03-27T16:51:17.935Z,98.60
2018-03-27T16:53:46.202Z,98.90
2018-03-27T16:56:14.462Z,99.30
2018-03-27T16:58:42.745Z,99.70
2018-03-27T17:01:11.037Z,99.90
2018-03-27T17:03:39.360Z,99.90
2018-03-27T17:06:07.635Z,99.90
2018-03-27T17:08:35.911Z,99.90
2018-03-27T17:11:04.244Z,99.80
2018-03-27T17:13:32.500Z,99.90
2018-03-27T17:16:00.936Z,99.90
2018-03-27T17:18:30.044Z,99.90
2018-03-27T17:20:58.377Z,99.90
2018-03-27T17:23:26.692Z,99.90
2018-03-27T17:25:55.097Z,99.90
2018-03-27T17:28:23.360Z,99.90
2018-03-27T17:30:51.724Z,99.90
2018-03-27T17:33:20.752Z,99.90
2018-03-27T17:35:49.033Z,99.90
2018-03-27T17:38:17.440Z,99.90
2018-03-27T17:40:45.698Z,99.90
2018-03-27T17:43:13.976Z,99.90
2018-03-27T17:45:42.258Z,99.90
2018-03-27T17:48:10.549Z,99.90
2018-03-27T17:50:38.818Z,99.90
2018-03-27T17:53:07.130Z,99.90
2018-03-27T17:55:35.405Z,99.90
2018-03-27T17:58:04.435Z,99.90
2018-03-27T18:00:33.134Z,99.90
2018-03-27T18:03:01.401Z,99.90
2018-03-27T18:05:29.745Z,99.90
2018-03-27T18:07:58.025Z,99.90
2018-03-27T18:10:26.299Z,99.90
2018-03-27T18:12:54.578Z,99.90
2018-03-27T18:15:22.885Z,99.90
2018-03-27T18:17:51.154Z,99.90
2018-03-27T18:20:19.423Z,99.90
2018-03-27T18:22:47.708Z,99.90
2018-03-27T18:25:15.967Z,99.90
2018-03-27T18:27:45.114Z,99.90
2018-03-27T18:30:14.993Z,99.90
2018-03-27T18:32:43.379Z,99.90
2018-03-27T18:35:12.423Z,99.90
2018-03-27T18:37:41.452Z,99.90
2018-03-27T18:40:09.732Z,99.90
2018-03-27T18:42:38.019Z,99.90
2018-03-27T18:45:06.288Z,99.90
2018-03-27T18:47:34.558Z,99.90
2018-03-27T18:50:02.836Z,99.90
2018-03-27T18:52:31.125Z,99.90
2018-03-27T18:54:59.388Z,99.90
2018-03-27T18:57:27.695Z,99.90
2018-03-27T18:59:55.958Z,99.90
2018-03-27T19:02:24.222Z,99.90
2018-03-27T19:04:52.499Z,99.90
2018-03-27T19:07:20.793Z,99.90
2018-03-27T19:09:49.080Z,99.90
2018-03-27T19:12:17.358Z,99.90
2018-03-27T19:14:45.630Z,99.90
2018-03-27T19:17:13.900Z,99.90
2018-03-27T19:19:42.183Z,99.90
2018-03-27T19:22:10.474Z,99.90
2018-03-27T19:24:39.525Z,99.90
2018-03-27T19:27:07.782Z,99.90
2018-03-27T19:29:36.057Z,99.90
2018-03-27T19:32:04.354Z,99.90
2018-03-27T19:34:32.627Z,99.90
2018-03-27T19:37:00.889Z,99.90
2018-03-27T19:39:29.214Z,99.90
2018-03-27T19:41:57.485Z,99.90
2018-03-27T19:44:25.752Z,99.90
2018-03-27T19:46:54.020Z,99.90
2018-03-27T19:49:22.282Z,99.90
2018-03-27T19:51:50.551Z,99.90
2018-03-27T19:54:18.854Z,99.90
2018-03-27T19:56:47.119Z,99.90
2018-03-27T19:59:15.378Z,99.90
2018-03-27T20:01:43.646Z,99.90
2018-03-27T20:04:11.913Z,99.90
2018-03-27T20:06:40.179Z,99.90
2018-03-27T20:09:09.204Z,99.90
2018-03-27T20:11:37.474Z,99.90
2018-03-27T20:14:05.763Z,99.90
2018-03-27T20:16:34.038Z,99.90
2018-03-27T20:19:02.291Z,99.90
2018-03-27T20:21:30.564Z,99.90
2018-03-27T20:23:59.595Z,99.90
2018-03-27T20:26:27.890Z,99.90
2018-03-27T20:28:56.156Z,99.90
2018-03-27T20:31:24.414Z,99.90
2018-03-27T20:33:52.733Z,99.90
2018-03-27T20:36:21.003Z,99.90
2018-03-27T20:38:49.273Z,99.90
2018-03-27T20:41:18.313Z,99.90
2018-03-27T20:43:46.631Z,99.90
2018-03-27T20:46:14.888Z,99.90
2018-03-27T20:48:43.184Z,99.90
2018-03-27T20:51:11.465Z,99.90
2018-03-27T20:53:39.734Z,99.90
2018-03-27T20:56:08.120Z,99.90
2018-03-27T20:58:36.386Z,99.90
2018-03-27T21:01:04.663Z,99.90
2018-03-27T21:03:32.941Z,99.90
2018-03-27T21:06:01.195Z,99.90
2018-03-27T21:08:29.473Z,99.90
2018-03-27T21:10:57.735Z,99.90
2018-03-27T21:13:26.007Z,99.90
2018-03-27T21:15:54.284Z,99.90
2018-03-27T21:18:22.612Z,99.90
2018-03-27T21:20:50.874Z,99.90
2018-03-27T21:23:19.270Z,99.90
2018-03-27T21:25:48.299Z,99.90
2018-03-27T21:28:17.337Z,99.90
2018-03-27T21:30:45.609Z,99.90
2018-03-27T21:33:13.867Z,99.90
2018-03-27T21:35:42.121Z,99.90
2018-03-27T21:38:10.393Z,99.90
2018-03-27T21:40:39.408Z,99.90
2018-03-27T21:43:07.665Z,99.90
2018-03-27T21:45:36.688Z,99.90
2018-03-27T21:48:04.986Z,99.90
2018-03-27T21:50:33.237Z,99.90
2018-03-27T21:53:01.539Z,99.90
2018-03-27T21:55:29.798Z,99.90
2018-03-27T21:57:58.084Z,99.90
2018-03-27T22:00:26.358Z,99.90
2018-03-27T22:02:54.632Z,99.90
2018-03-27T22:05:22.912Z,99.90
2018-03-27T22:07:51.332Z,99.90
2018-03-27T22:10:20.628Z,99.90
2018-03-27T22:12:48.891Z,99.90
2018-03-27T22:15:17.956Z,99.90
2018-03-27T22:17:46.217Z,99.90
2018-03-27T22:20:14.489Z,99.90
2018-03-27T22:22:42.761Z,99.90
2018-03-27T22:25:15.209Z,99.90
2018-03-27T22:27:43.701Z,99.90
2018-03-27T22:30:12.747Z,99.90
2018-03-27T22:32:41.029Z,99.90
2018-03-27T22:35:09.305Z,99.90
2018-03-27T22:37:37.569Z,99.90
2018-03-27T22:40:05.849Z,99.90
2018-03-27T22:42:34.138Z,99.90
2018-03-27T22:45:02.402Z,99.90
2018-03-27T22:47:30.676Z,99.90
2018-03-27T22:49:58.948Z,99.90
2018-03-27T22:52:27.229Z,99.90
2018-03-27T22:54:55.503Z,99.90
2018-03-27T22:57:23.774Z,99.90
2018-03-27T22:59:52.042Z,99.90
2018-03-27T23:02:20.778Z,99.90
2018-03-27T23:04:49.049Z,99.90
2018-03-27T23:07:17.415Z,99.90
2018-03-27T23:09:45.745Z,99.90
2018-03-27T23:12:14.015Z,99.90
2018-03-27T23:14:42.280Z,99.90
2018-03-27T23:17:11.357Z,99.90
2018-03-27T23:19:40.855Z,99.90
2018-03-27T23:22:09.138Z,99.90
2018-03-27T23:24:37.400Z,99.90
2018-03-27T23:27:06.236Z,99.90
2018-03-27T23:29:35.382Z,99.90
2018-03-27T23:32:03.638Z,99.90
2018-03-27T23:34:32.005Z,99.90
2018-03-27T23:37:00.471Z,99.90
2018-03-27T23:39:28.745Z,99.90
2018-03-27T23:41:57.062Z,99.90
2018-03-27T23:44:26.104Z,99.90
2018-03-27T23:46:54.375Z,99.90
2018-03-27T23:49:23.406Z,99.90
2018-03-27T23:51:51.855Z,99.90
2018-03-27T23:54:20.214Z,99.90
2018-03-27T23:56:49.374Z,99.90
2018-03-27T23:59:17.767Z,99.90
